VLG6XB LEPA-LEBL
Flight info
| Callsign | VLG6XB |
|---|---|
| Flight time | 0h 31m |
| Altitude | 16000 |
| Route | ESPOR L2 NEPAL |
| Aircraft | A320/M-SDFGHILORVWXY/LB1 |
Departure
| Time | 2026-05-05 19:43 |
|---|---|
| Airport | Palma de Mallorca Airport (LEPA) |
Arrival
| Time | 2026-05-05 20:14 |
|---|---|
| Airport | Josep Tarradellas Barcelona-El Prat Airport (LEBL) |
| Time | Latitude | Longitude | Altitude | Speed | Heading |
|---|---|---|---|---|---|
| 2026-05-05 19:07 | 39.54555 | 2.73326 | 29 ft | 0 kts | 346° |
| 2026-05-05 19:27 | 39.54540 | 2.73331 | 30 ft | 2 kts | 348° |
| 2026-05-05 19:27 | 39.54524 | 2.73335 | 30 ft | 2 kts | 352° |
| 2026-05-05 19:27 | 39.54508 | 2.73337 | 30 ft | 2 kts | 19° |
| 2026-05-05 19:28 | 39.54496 | 2.73327 | 30 ft | 1 kts | 59° |
| 2026-05-05 19:28 | 39.54494 | 2.73323 | 30 ft | 0 kts | 59° |
| 2026-05-05 19:32 | 39.54496 | 2.73328 | 30 ft | 2 kts | 59° |
| 2026-05-05 19:32 | 39.54512 | 2.73363 | 30 ft | 7 kts | 59° |
| 2026-05-05 19:32 | 39.54547 | 2.73435 | 30 ft | 10 kts | 58° |
| 2026-05-05 19:33 | 39.54586 | 2.73518 | 30 ft | 11 kts | 58° |
| 2026-05-05 19:33 | 39.54633 | 2.73606 | 30 ft | 12 kts | 59° |
| 2026-05-05 19:33 | 39.54679 | 2.73706 | 30 ft | 14 kts | 59° |
| 2026-05-05 19:33 | 39.54726 | 2.73809 | 30 ft | 11 kts | 58° |
| 2026-05-05 19:34 | 39.54733 | 2.73824 | 30 ft | 0 kts | 58° |
| 2026-05-05 19:35 | 39.54733 | 2.73825 | 30 ft | 1 kts | 58° |
| 2026-05-05 19:35 | 39.54743 | 2.73846 | 30 ft | 4 kts | 58° |
| 2026-05-05 19:35 | 39.54761 | 2.73883 | 30 ft | 5 kts | 58° |
| 2026-05-05 19:36 | 39.54782 | 2.73928 | 30 ft | 6 kts | 59° |
| 2026-05-05 19:36 | 39.54807 | 2.73982 | 30 ft | 8 kts | 59° |
| 2026-05-05 19:36 | 39.54852 | 2.73999 | 30 ft | 8 kts | 338° |
| 2026-05-05 19:36 | 39.54906 | 2.73959 | 30 ft | 10 kts | 335° |
| 2026-05-05 19:37 | 39.54958 | 2.74013 | 37 ft | 11 kts | 39° |
| 2026-05-05 19:37 | 39.55016 | 2.73979 | 30 ft | 11 kts | 329° |
| 2026-05-05 19:37 | 39.55091 | 2.73922 | 30 ft | 14 kts | 329° |
| 2026-05-05 19:37 | 39.55186 | 2.73844 | 30 ft | 18 kts | 327° |
| 2026-05-05 19:38 | 39.55300 | 2.73755 | 30 ft | 21 kts | 328° |
| 2026-05-05 19:38 | 39.55435 | 2.73646 | 30 ft | 24 kts | 328° |
| 2026-05-05 19:38 | 39.55570 | 2.73542 | 30 ft | 13 kts | 329° |
| 2026-05-05 19:38 | 39.55653 | 2.73503 | 30 ft | 11 kts | 28° |
| 2026-05-05 19:39 | 39.55703 | 2.73599 | 30 ft | 15 kts | 59° |
| 2026-05-05 19:39 | 39.55761 | 2.73724 | 30 ft | 18 kts | 58° |
| 2026-05-05 19:39 | 39.55832 | 2.73874 | 30 ft | 21 kts | 58° |
| 2026-05-05 19:39 | 39.55914 | 2.74048 | 30 ft | 24 kts | 58° |
| 2026-05-05 19:40 | 39.55987 | 2.74199 | 30 ft | 20 kts | 56° |
| 2026-05-05 19:40 | 39.56102 | 2.74308 | 30 ft | 17 kts | 34° |
| 2026-05-05 19:40 | 39.56156 | 2.74355 | 30 ft | 0 kts | 34° |
| 2026-05-05 19:41 | 39.56175 | 2.74369 | 30 ft | 6 kts | 22° |
| 2026-05-05 19:41 | 39.56231 | 2.74349 | 30 ft | 11 kts | 318° |
| 2026-05-05 19:41 | 39.56225 | 2.74256 | 29 ft | 0 kts | 238° |
| 2026-05-05 19:42 | 39.56225 | 2.74255 | 29 ft | 0 kts | 238° |
| 2026-05-05 19:42 | 39.56223 | 2.74251 | 29 ft | 2 kts | 238° |
| 2026-05-05 19:42 | 39.56132 | 2.74057 | 30 ft | 62 kts | 238° |
| 2026-05-05 19:43 | 39.55781 | 2.73317 | 30 ft | 127 kts | 238° |
| 2026-05-05 19:43 | 39.55238 | 2.72170 | 221 ft | 161 kts | 238° |
| 2026-05-05 19:43 | 39.54642 | 2.70906 | 933 ft | 166 kts | 238° |
| 2026-05-05 19:43 | 39.54031 | 2.69643 | 1806 ft | 165 kts | 239° |
| 2026-05-05 19:44 | 39.53408 | 2.68386 | 2483 ft | 168 kts | 239° |
| 2026-05-05 19:44 | 39.52765 | 2.67113 | 3194 ft | 168 kts | 239° |
| 2026-05-05 19:44 | 39.52098 | 2.65812 | 3716 ft | 182 kts | 239° |
| 2026-05-05 19:44 | 39.51356 | 2.64360 | 4083 ft | 204 kts | 238° |
| 2026-05-05 19:45 | 39.50549 | 2.62785 | 4683 ft | 214 kts | 238° |
| 2026-05-05 19:45 | 39.50000 | 2.61718 | 5250 ft | 216 kts | 239° |
| 2026-05-05 19:45 | 39.49167 | 2.60097 | 6211 ft | 218 kts | 239° |
| 2026-05-05 19:45 | 39.48324 | 2.58453 | 7128 ft | 220 kts | 239° |
| 2026-05-05 19:46 | 39.47607 | 2.56650 | 7753 ft | 237 kts | 258° |
| 2026-05-05 19:46 | 39.47666 | 2.54451 | 8284 ft | 258 kts | 289° |
| 2026-05-05 19:46 | 39.48756 | 2.52556 | 9108 ft | 274 kts | 321° |
| 2026-05-05 19:46 | 39.50479 | 2.51406 | 10045 ft | 282 kts | 332° |
| 2026-05-05 19:47 | 39.52355 | 2.50375 | 10524 ft | 305 kts | 333° |
| 2026-05-05 19:47 | 39.54389 | 2.49316 | 11003 ft | 322 kts | 333° |
| 2026-05-05 19:47 | 39.56502 | 2.48234 | 11725 ft | 330 kts | 333° |
| 2026-05-05 19:47 | 39.58660 | 2.47123 | 12500 ft | 337 kts | 333° |
| 2026-05-05 19:48 | 39.60854 | 2.45980 | 13250 ft | 343 kts | 333° |
| 2026-05-05 19:48 | 39.63085 | 2.44803 | 13990 ft | 349 kts | 331° |
| 2026-05-05 19:48 | 39.65347 | 2.43598 | 14722 ft | 353 kts | 331° |
| 2026-05-05 19:48 | 39.67629 | 2.42377 | 15451 ft | 356 kts | 330° |
| 2026-05-05 19:49 | 39.69933 | 2.41137 | 15815 ft | 359 kts | 330° |
| 2026-05-05 19:49 | 39.72238 | 2.39897 | 15918 ft | 357 kts | 330° |
| 2026-05-05 19:49 | 39.74529 | 2.38669 | 15936 ft | 355 kts | 330° |
| 2026-05-05 19:49 | 39.76808 | 2.37449 | 15931 ft | 354 kts | 330° |
| 2026-05-05 19:50 | 39.79084 | 2.36228 | 15938 ft | 354 kts | 330° |
| 2026-05-05 19:50 | 39.81361 | 2.35004 | 15934 ft | 354 kts | 330° |
| 2026-05-05 19:50 | 39.83633 | 2.33780 | 15940 ft | 354 kts | 330° |
| 2026-05-05 19:50 | 39.85906 | 2.32554 | 15941 ft | 354 kts | 330° |
| 2026-05-05 19:51 | 39.88179 | 2.31328 | 15932 ft | 354 kts | 330° |
| 2026-05-05 19:51 | 39.90453 | 2.30102 | 15930 ft | 354 kts | 330° |
| 2026-05-05 19:51 | 39.92726 | 2.28877 | 15936 ft | 353 kts | 330° |
| 2026-05-05 19:51 | 39.94996 | 2.27652 | 15933 ft | 354 kts | 330° |
| 2026-05-05 19:52 | 39.97271 | 2.26425 | 15952 ft | 354 kts | 330° |
| 2026-05-05 19:52 | 39.99545 | 2.25195 | 15949 ft | 354 kts | 330° |
| 2026-05-05 19:52 | 40.01818 | 2.23962 | 15951 ft | 354 kts | 330° |
| 2026-05-05 19:52 | 40.04093 | 2.22726 | 15967 ft | 354 kts | 330° |
| 2026-05-05 19:53 | 40.06365 | 2.21494 | 15955 ft | 354 kts | 330° |
| 2026-05-05 19:53 | 40.08641 | 2.20265 | 15969 ft | 354 kts | 330° |
| 2026-05-05 19:53 | 40.10916 | 2.19036 | 15961 ft | 354 kts | 330° |
| 2026-05-05 19:53 | 40.13189 | 2.17803 | 15970 ft | 353 kts | 330° |
| 2026-05-05 19:54 | 40.15456 | 2.16569 | 15970 ft | 353 kts | 330° |
| 2026-05-05 19:54 | 40.17725 | 2.15331 | 15972 ft | 353 kts | 330° |
| 2026-05-05 19:54 | 40.19993 | 2.14096 | 15971 ft | 353 kts | 330° |
| 2026-05-05 19:54 | 40.22261 | 2.12860 | 15971 ft | 353 kts | 330° |
| 2026-05-05 19:55 | 40.24526 | 2.11624 | 15972 ft | 353 kts | 330° |
| 2026-05-05 19:55 | 40.26793 | 2.10387 | 15978 ft | 353 kts | 330° |
| 2026-05-05 19:55 | 40.29087 | 2.09225 | 15977 ft | 356 kts | 335° |
| 2026-05-05 19:55 | 40.31451 | 2.08247 | 15975 ft | 356 kts | 335° |
| 2026-05-05 19:56 | 40.33815 | 2.07272 | 15974 ft | 356 kts | 335° |
| 2026-05-05 19:56 | 40.36175 | 2.06297 | 15975 ft | 356 kts | 335° |
| 2026-05-05 19:56 | 40.38537 | 2.05319 | 15971 ft | 355 kts | 335° |
| 2026-05-05 19:56 | 40.40891 | 2.04341 | 15971 ft | 355 kts | 335° |
| 2026-05-05 19:57 | 40.43245 | 2.03358 | 15970 ft | 355 kts | 335° |
| 2026-05-05 19:57 | 40.45597 | 2.02374 | 15973 ft | 355 kts | 336° |
| 2026-05-05 19:57 | 40.47948 | 2.01392 | 15970 ft | 354 kts | 336° |
| 2026-05-05 19:57 | 40.50296 | 2.00416 | 15970 ft | 354 kts | 336° |
| 2026-05-05 19:58 | 40.52645 | 1.99439 | 15971 ft | 354 kts | 336° |
| 2026-05-05 19:58 | 40.54992 | 1.98461 | 15971 ft | 354 kts | 336° |
| 2026-05-05 19:58 | 40.57337 | 1.97483 | 15972 ft | 353 kts | 336° |
| 2026-05-05 19:58 | 40.59677 | 1.96506 | 15972 ft | 353 kts | 336° |
| 2026-05-05 19:59 | 40.62008 | 1.95532 | 15840 ft | 347 kts | 336° |
| 2026-05-05 19:59 | 40.64279 | 1.94586 | 15588 ft | 338 kts | 336° |
| 2026-05-05 19:59 | 40.66506 | 1.93719 | 15287 ft | 334 kts | 343° |
| 2026-05-05 19:59 | 40.68835 | 1.93467 | 14871 ft | 340 kts | 359° |
| 2026-05-05 20:00 | 40.71172 | 1.94036 | 14433 ft | 345 kts | 15° |
| 2026-05-05 20:00 | 40.73360 | 1.95375 | 13984 ft | 348 kts | 26° |
| 2026-05-05 20:00 | 40.75486 | 1.96900 | 13512 ft | 348 kts | 26° |
| 2026-05-05 20:00 | 40.77602 | 1.98422 | 13050 ft | 346 kts | 26° |
| 2026-05-05 20:01 | 40.79708 | 1.99938 | 12579 ft | 344 kts | 26° |
| 2026-05-05 20:01 | 40.81810 | 2.01448 | 12106 ft | 343 kts | 25° |
| 2026-05-05 20:01 | 40.83871 | 2.02928 | 11625 ft | 331 kts | 25° |
| 2026-05-05 20:01 | 40.85859 | 2.04357 | 11135 ft | 321 kts | 25° |
| 2026-05-05 20:02 | 40.87722 | 2.05948 | 10630 ft | 317 kts | 32° |
| 2026-05-05 20:02 | 40.89496 | 2.07655 | 10194 ft | 315 kts | 33° |
| 2026-05-05 20:02 | 40.91250 | 2.09377 | 9955 ft | 313 kts | 33° |
| 2026-05-05 20:02 | 40.92972 | 2.11084 | 9786 ft | 306 kts | 33° |
| 2026-05-05 20:03 | 40.94668 | 2.12764 | 9652 ft | 304 kts | 33° |
| 2026-05-05 20:03 | 40.96357 | 2.14432 | 9526 ft | 302 kts | 33° |
| 2026-05-05 20:03 | 40.98041 | 2.16088 | 9395 ft | 301 kts | 33° |
| 2026-05-05 20:03 | 40.99719 | 2.17738 | 9261 ft | 300 kts | 33° |
| 2026-05-05 20:04 | 41.01391 | 2.19383 | 9127 ft | 299 kts | 33° |
| 2026-05-05 20:04 | 41.03058 | 2.21022 | 8997 ft | 298 kts | 33° |
| 2026-05-05 20:04 | 41.04723 | 2.22655 | 8868 ft | 297 kts | 33° |
| 2026-05-05 20:04 | 41.06382 | 2.24286 | 8736 ft | 296 kts | 33° |
| 2026-05-05 20:05 | 41.08030 | 2.25914 | 8601 ft | 295 kts | 33° |
| 2026-05-05 20:05 | 41.09675 | 2.27545 | 8479 ft | 295 kts | 33° |
| 2026-05-05 20:05 | 41.11315 | 2.29168 | 8348 ft | 294 kts | 33° |
| 2026-05-05 20:05 | 41.12951 | 2.30781 | 8218 ft | 293 kts | 33° |
| 2026-05-05 20:06 | 41.14585 | 2.32390 | 8091 ft | 292 kts | 34° |
| 2026-05-05 20:06 | 41.16206 | 2.33990 | 7778 ft | 290 kts | 34° |
| 2026-05-05 20:06 | 41.17822 | 2.35590 | 7401 ft | 290 kts | 34° |
| 2026-05-05 20:06 | 41.19440 | 2.37192 | 7016 ft | 290 kts | 34° |
| 2026-05-05 20:07 | 41.21046 | 2.38785 | 6817 ft | 284 kts | 34° |
| 2026-05-05 20:07 | 41.22587 | 2.40292 | 6691 ft | 274 kts | 30° |
| 2026-05-05 20:07 | 41.24290 | 2.41211 | 6572 ft | 259 kts | 6° |
| 2026-05-05 20:07 | 41.26032 | 2.41193 | 6446 ft | 245 kts | 344° |
| 2026-05-05 20:08 | 41.27583 | 2.40390 | 6198 ft | 238 kts | 327° |
| 2026-05-05 20:08 | 41.29022 | 2.39309 | 5880 ft | 237 kts | 327° |
| 2026-05-05 20:08 | 41.30460 | 2.38232 | 5534 ft | 237 kts | 328° |
| 2026-05-05 20:08 | 41.31893 | 2.37159 | 5204 ft | 236 kts | 328° |
| 2026-05-05 20:09 | 41.33327 | 2.36088 | 4832 ft | 237 kts | 328° |
| 2026-05-05 20:09 | 41.34782 | 2.35003 | 4263 ft | 239 kts | 328° |
| 2026-05-05 20:09 | 41.36208 | 2.33923 | 3791 ft | 232 kts | 324° |
| 2026-05-05 20:09 | 41.37196 | 2.32343 | 3437 ft | 218 kts | 289° |
| 2026-05-05 20:10 | 41.37322 | 2.30429 | 3236 ft | 204 kts | 259° |
| 2026-05-05 20:10 | 41.36827 | 2.28723 | 3025 ft | 192 kts | 248° |
| 2026-05-05 20:10 | 41.36286 | 2.27145 | 2784 ft | 183 kts | 248° |
| 2026-05-05 20:10 | 41.35772 | 2.25637 | 2530 ft | 175 kts | 248° |
| 2026-05-05 20:11 | 41.35280 | 2.24191 | 2300 ft | 168 kts | 249° |
| 2026-05-05 20:11 | 41.34821 | 2.22845 | 2091 ft | 151 kts | 249° |
| 2026-05-05 20:11 | 41.34407 | 2.21626 | 1894 ft | 139 kts | 249° |
| 2026-05-05 20:11 | 41.34016 | 2.20476 | 1718 ft | 135 kts | 249° |
| 2026-05-05 20:12 | 41.33630 | 2.19342 | 1533 ft | 135 kts | 248° |
| 2026-05-05 20:12 | 41.33243 | 2.18206 | 1357 ft | 133 kts | 248° |
| 2026-05-05 20:12 | 41.32871 | 2.17114 | 1175 ft | 128 kts | 249° |
| 2026-05-05 20:12 | 41.32503 | 2.16035 | 991 ft | 129 kts | 248° |
| 2026-05-05 20:13 | 41.32132 | 2.14946 | 811 ft | 129 kts | 247° |
| 2026-05-05 20:13 | 41.31759 | 2.13852 | 637 ft | 130 kts | 248° |
| 2026-05-05 20:13 | 41.31383 | 2.12750 | 437 ft | 131 kts | 249° |
| 2026-05-05 20:13 | 41.31005 | 2.11651 | 272 ft | 130 kts | 248° |
| 2026-05-05 20:14 | 41.30629 | 2.10559 | 102 ft | 130 kts | 250° |
| 2026-05-05 20:14 | 41.30281 | 2.09512 | 21 ft | 112 kts | 248° |
| 2026-05-05 20:14 | 41.30026 | 2.08770 | 21 ft | 63 kts | 245° |
| 2026-05-05 20:14 | 41.29894 | 2.08419 | 27 ft | 32 kts | 237° |
| 2026-05-05 20:15 | 41.29753 | 2.08240 | 18 ft | 19 kts | 217° |
| 2026-05-05 20:15 | 41.29688 | 2.08189 | 19 ft | 10 kts | 180° |
| 2026-05-05 20:15 | 41.29611 | 2.08229 | 16 ft | 14 kts | 153° |
| 2026-05-05 20:15 | 41.29514 | 2.08289 | 18 ft | 17 kts | 157° |
| 2026-05-05 20:16 | 41.29398 | 2.08355 | 19 ft | 19 kts | 156° |
| 2026-05-05 20:16 | 41.29275 | 2.08434 | 23 ft | 21 kts | 154° |
| 2026-05-05 20:16 | 41.29186 | 2.08438 | 20 ft | 11 kts | 196° |
| 2026-05-05 20:16 | 41.29099 | 2.08398 | 19 ft | 15 kts | 200° |
| 2026-05-05 20:17 | 41.29027 | 2.08294 | 20 ft | 11 kts | 244° |
| 2026-05-05 20:17 | 41.29039 | 2.08239 | 20 ft | 8 kts | 336° |
| 2026-05-05 20:17 | 41.29077 | 2.08218 | 19 ft | 3 kts | 335° |
| 2026-05-05 20:17 | 41.29087 | 2.08211 | 19 ft | 0 kts | 334° |